sensor_id;sensor_type;location;lat;lon;timestamp;P1;durP1;ratioP1;P2;durP2;ratioP2
11414;SDS011;5763;42.714;23.244;2023-01-09T00:01:14;18.08;;;14.02;;
11414;SDS011;5763;42.714;23.244;2023-01-09T00:03:44;22.50;;;15.95;;
11414;SDS011;5763;42.714;23.244;2023-01-09T00:06:10;21.50;;;15.00;;
11414;SDS011;5763;42.714;23.244;2023-01-09T00:08:37;18.42;;;15.00;;
11414;SDS011;5763;42.714;23.244;2023-01-09T00:11:05;20.33;;;14.90;;
11414;SDS011;5763;42.714;23.244;2023-01-09T00:13:32;23.85;;;15.75;;
11414;SDS011;5763;42.714;23.244;2023-01-09T00:15:59;23.58;;;16.63;;
11414;SDS011;5763;42.714;23.244;2023-01-09T00:18:27;24.48;;;16.33;;
11414;SDS011;5763;42.714;23.244;2023-01-09T00:20:54;20.08;;;15.25;;
11414;SDS011;5763;42.714;23.244;2023-01-09T00:23:24;23.02;;;15.45;;
11414;SDS011;5763;42.714;23.244;2023-01-09T00:25:59;19.23;;;15.45;;
11414;SDS011;5763;42.714;23.244;2023-01-09T00:28:27;19.60;;;14.25;;
11414;SDS011;5763;42.714;23.244;2023-01-09T00:30:54;22.25;;;16.50;;
11414;SDS011;5763;42.714;23.244;2023-01-09T00:33:22;20.17;;;15.60;;
11414;SDS011;5763;42.714;23.244;2023-01-09T00:35:52;21.02;;;15.30;;
11414;SDS011;5763;42.714;23.244;2023-01-09T00:38:19;24.77;;;16.88;;
11414;SDS011;5763;42.714;23.244;2023-01-09T00:40:45;20.33;;;15.43;;
11414;SDS011;5763;42.714;23.244;2023-01-09T00:43:12;22.42;;;15.75;;
11414;SDS011;5763;42.714;23.244;2023-01-09T00:45:39;21.95;;;15.93;;
11414;SDS011;5763;42.714;23.244;2023-01-09T00:48:07;22.15;;;16.27;;
11414;SDS011;5763;42.714;23.244;2023-01-09T00:50:36;24.38;;;16.25;;
11414;SDS011;5763;42.714;23.244;2023-01-09T00:53:06;21.27;;;15.68;;
11414;SDS011;5763;42.714;23.244;2023-01-09T00:55:36;20.20;;;15.57;;
11414;SDS011;5763;42.714;23.244;2023-01-09T00:58:04;21.05;;;15.57;;
11414;SDS011;5763;42.714;23.244;2023-01-09T01:00:32;20.13;;;15.27;;
11414;SDS011;5763;42.714;23.244;2023-01-09T01:02:59;20.48;;;16.00;;
11414;SDS011;5763;42.714;23.244;2023-01-09T01:05:26;22.17;;;16.52;;
11414;SDS011;5763;42.714;23.244;2023-01-09T01:08:11;21.52;;;16.50;;
11414;SDS011;5763;42.714;23.244;2023-01-09T01:10:39;24.30;;;15.98;;
11414;SDS011;5763;42.714;23.244;2023-01-09T01:13:06;22.95;;;16.35;;
11414;SDS011;5763;42.714;23.244;2023-01-09T01:15:33;22.73;;;15.50;;
11414;SDS011;5763;42.714;23.244;2023-01-09T01:18:00;20.92;;;15.77;;
11414;SDS011;5763;42.714;23.244;2023-01-09T01:20:27;21.90;;;16.48;;
11414;SDS011;5763;42.714;23.244;2023-01-09T01:22:54;20.50;;;15.07;;
11414;SDS011;5763;42.714;23.244;2023-01-09T01:25:22;21.50;;;14.95;;
11414;SDS011;5763;42.714;23.244;2023-01-09T01:27:48;18.20;;;14.25;;
11414;SDS011;5763;42.714;23.244;2023-01-09T01:30:16;22.27;;;16.10;;
11414;SDS011;5763;42.714;23.244;2023-01-09T01:32:44;21.52;;;15.70;;
11414;SDS011;5763;42.714;23.244;2023-01-09T01:35:11;21.15;;;14.45;;
11414;SDS011;5763;42.714;23.244;2023-01-09T01:37:38;17.67;;;14.40;;
11414;SDS011;5763;42.714;23.244;2023-01-09T01:40:05;21.80;;;16.17;;
11414;SDS011;5763;42.714;23.244;2023-01-09T01:42:35;20.40;;;15.48;;
11414;SDS011;5763;42.714;23.244;2023-01-09T01:45:06;21.05;;;15.65;;
11414;SDS011;5763;42.714;23.244;2023-01-09T01:47:43;19.85;;;15.98;;
11414;SDS011;5763;42.714;23.244;2023-01-09T01:50:16;21.52;;;15.18;;
11414;SDS011;5763;42.714;23.244;2023-01-09T01:52:47;21.33;;;15.25;;
11414;SDS011;5763;42.714;23.244;2023-01-09T01:55:19;22.35;;;16.65;;
11414;SDS011;5763;42.714;23.244;2023-01-09T01:57:47;21.80;;;15.75;;
11414;SDS011;5763;42.714;23.244;2023-01-09T02:00:20;20.90;;;15.68;;
11414;SDS011;5763;42.714;23.244;2023-01-09T02:02:52;20.77;;;15.73;;
11414;SDS011;5763;42.714;23.244;2023-01-09T02:05:19;19.95;;;14.75;;
11414;SDS011;5763;42.714;23.244;2023-01-09T02:07:46;21.90;;;15.65;;
11414;SDS011;5763;42.714;23.244;2023-01-09T02:10:13;19.80;;;14.82;;
11414;SDS011;5763;42.714;23.244;2023-01-09T02:12:40;19.88;;;15.15;;
11414;SDS011;5763;42.714;23.244;2023-01-09T02:15:09;21.77;;;14.40;;
11414;SDS011;5763;42.714;23.244;2023-01-09T02:17:56;20.48;;;15.02;;
11414;SDS011;5763;42.714;23.244;2023-01-09T02:20:38;20.92;;;14.98;;
11414;SDS011;5763;42.714;23.244;2023-01-09T02:29:42;20.75;;;14.35;;
11414;SDS011;5763;42.714;23.244;2023-01-09T02:32:20;20.58;;;14.82;;
11414;SDS011;5763;42.714;23.244;2023-01-09T02:35:01;19.83;;;13.82;;
11414;SDS011;5763;42.714;23.244;2023-01-09T02:37:36;23.55;;;14.90;;
11414;SDS011;5763;42.714;23.244;2023-01-09T02:40:11;19.95;;;14.40;;
11414;SDS011;5763;42.714;23.244;2023-01-09T02:42:47;20.25;;;14.32;;
11414;SDS011;5763;42.714;23.244;2023-01-09T02:45:15;19.60;;;14.10;;
11414;SDS011;5763;42.714;23.244;2023-01-09T02:47:43;19.95;;;15.40;;
11414;SDS011;5763;42.714;23.244;2023-01-09T02:50:12;20.25;;;14.75;;
11414;SDS011;5763;42.714;23.244;2023-01-09T02:55:48;18.38;;;13.93;;
11414;SDS011;5763;42.714;23.244;2023-01-09T02:58:25;17.73;;;14.10;;
11414;SDS011;5763;42.714;23.244;2023-01-09T03:01:01;19.13;;;14.30;;
11414;SDS011;5763;42.714;23.244;2023-01-09T03:03:43;19.30;;;13.90;;
11414;SDS011;5763;42.714;23.244;2023-01-09T03:06:17;19.92;;;14.38;;
11414;SDS011;5763;42.714;23.244;2023-01-09T03:08:49;18.67;;;14.65;;
11414;SDS011;5763;42.714;23.244;2023-01-09T03:11:19;22.67;;;14.77;;
11414;SDS011;5763;42.714;23.244;2023-01-09T03:13:48;19.70;;;14.43;;
11414;SDS011;5763;42.714;23.244;2023-01-09T03:16:19;19.05;;;14.68;;
11414;SDS011;5763;42.714;23.244;2023-01-09T03:18:51;20.60;;;14.02;;
11414;SDS011;5763;42.714;23.244;2023-01-09T03:21:20;24.10;;;14.88;;
11414;SDS011;5763;42.714;23.244;2023-01-09T03:23:49;22.00;;;15.65;;
11414;SDS011;5763;42.714;23.244;2023-01-09T03:26:17;23.83;;;16.48;;
11414;SDS011;5763;42.714;23.244;2023-01-09T03:28:44;23.10;;;15.93;;
11414;SDS011;5763;42.714;23.244;2023-01-09T03:31:11;20.77;;;14.30;;
11414;SDS011;5763;42.714;23.244;2023-01-09T03:33:39;23.85;;;15.27;;
11414;SDS011;5763;42.714;23.244;2023-01-09T03:36:08;20.40;;;15.13;;
11414;SDS011;5763;42.714;23.244;2023-01-09T03:38:36;25.38;;;17.65;;
11414;SDS011;5763;42.714;23.244;2023-01-09T03:41:03;23.30;;;16.45;;
11414;SDS011;5763;42.714;23.244;2023-01-09T03:43:30;22.25;;;16.13;;
11414;SDS011;5763;42.714;23.244;2023-01-09T03:45:58;22.33;;;16.33;;
11414;SDS011;5763;42.714;23.244;2023-01-09T03:48:25;21.55;;;15.85;;
11414;SDS011;5763;42.714;23.244;2023-01-09T03:50:52;21.15;;;15.50;;
11414;SDS011;5763;42.714;23.244;2023-01-09T03:53:22;22.63;;;15.70;;
11414;SDS011;5763;42.714;23.244;2023-01-09T03:55:51;21.38;;;15.10;;
11414;SDS011;5763;42.714;23.244;2023-01-09T03:58:19;20.80;;;15.80;;
11414;SDS011;5763;42.714;23.244;2023-01-09T04:00:47;19.58;;;14.30;;
11414;SDS011;5763;42.714;23.244;2023-01-09T04:03:15;23.90;;;15.75;;
11414;SDS011;5763;42.714;23.244;2023-01-09T04:05:42;21.63;;;14.85;;
11414;SDS011;5763;42.714;23.244;2023-01-09T04:08:09;20.75;;;15.82;;
11414;SDS011;5763;42.714;23.244;2023-01-09T04:10:37;22.95;;;16.20;;
11414;SDS011;5763;42.714;23.244;2023-01-09T04:13:04;22.65;;;15.13;;
11414;SDS011;5763;42.714;23.244;2023-01-09T04:15:31;24.08;;;15.68;;
11414;SDS011;5763;42.714;23.244;2023-01-09T04:17:58;23.58;;;16.65;;
11414;SDS011;5763;42.714;23.244;2023-01-09T04:20:24;25.15;;;16.50;;
11414;SDS011;5763;42.714;23.244;2023-01-09T04:22:51;20.55;;;15.93;;
11414;SDS011;5763;42.714;23.244;2023-01-09T04:25:18;24.35;;;16.35;;
11414;SDS011;5763;42.714;23.244;2023-01-09T04:27:48;19.83;;;15.52;;
11414;SDS011;5763;42.714;23.244;2023-01-09T04:30:14;20.65;;;16.20;;
11414;SDS011;5763;42.714;23.244;2023-01-09T04:32:42;23.77;;;15.98;;
11414;SDS011;5763;42.714;23.244;2023-01-09T04:35:08;24.85;;;17.40;;
11414;SDS011;5763;42.714;23.244;2023-01-09T04:37:36;25.27;;;17.30;;
11414;SDS011;5763;42.714;23.244;2023-01-09T04:40:04;24.17;;;16.83;;
11414;SDS011;5763;42.714;23.244;2023-01-09T04:42:34;21.55;;;17.08;;
11414;SDS011;5763;42.714;23.244;2023-01-09T04:45:02;23.02;;;15.77;;
11414;SDS011;5763;42.714;23.244;2023-01-09T04:47:30;22.63;;;16.52;;
11414;SDS011;5763;42.714;23.244;2023-01-09T04:49:57;24.23;;;17.92;;
11414;SDS011;5763;42.714;23.244;2023-01-09T04:52:23;25.27;;;16.17;;
11414;SDS011;5763;42.714;23.244;2023-01-09T04:54:50;24.15;;;16.90;;
11414;SDS011;5763;42.714;23.244;2023-01-09T04:57:17;22.92;;;15.70;;
11414;SDS011;5763;42.714;23.244;2023-01-09T04:59:44;20.88;;;16.30;;
11414;SDS011;5763;42.714;23.244;2023-01-09T05:02:12;24.73;;;17.63;;
11414;SDS011;5763;42.714;23.244;2023-01-09T05:04:39;25.35;;;17.90;;
11414;SDS011;5763;42.714;23.244;2023-01-09T05:07:06;25.92;;;17.02;;
11414;SDS011;5763;42.714;23.244;2023-01-09T05:09:33;21.55;;;16.95;;
11414;SDS011;5763;42.714;23.244;2023-01-09T05:12:00;23.60;;;16.45;;
11414;SDS011;5763;42.714;23.244;2023-01-09T05:14:27;22.85;;;16.95;;
11414;SDS011;5763;42.714;23.244;2023-01-09T05:16:54;24.80;;;17.17;;
11414;SDS011;5763;42.714;23.244;2023-01-09T05:19:22;24.10;;;17.08;;
11414;SDS011;5763;42.714;23.244;2023-01-09T05:21:50;25.77;;;17.48;;
11414;SDS011;5763;42.714;23.244;2023-01-09T05:24:17;28.85;;;19.35;;
11414;SDS011;5763;42.714;23.244;2023-01-09T05:26:44;26.77;;;19.52;;
11414;SDS011;5763;42.714;23.244;2023-01-09T05:29:10;27.70;;;18.70;;
11414;SDS011;5763;42.714;23.244;2023-01-09T05:31:37;26.20;;;18.98;;
11414;SDS011;5763;42.714;23.244;2023-01-09T05:34:04;26.52;;;18.95;;
11414;SDS011;5763;42.714;23.244;2023-01-09T05:36:32;24.88;;;19.27;;
11414;SDS011;5763;42.714;23.244;2023-01-09T05:38:59;26.52;;;19.60;;
11414;SDS011;5763;42.714;23.244;2023-01-09T05:41:27;28.92;;;19.23;;
11414;SDS011;5763;42.714;23.244;2023-01-09T05:43:53;24.80;;;18.83;;
11414;SDS011;5763;42.714;23.244;2023-01-09T05:46:20;27.83;;;19.00;;
11414;SDS011;5763;42.714;23.244;2023-01-09T05:48:47;27.92;;;19.13;;
11414;SDS011;5763;42.714;23.244;2023-01-09T05:51:14;25.42;;;19.00;;
11414;SDS011;5763;42.714;23.244;2023-01-09T05:53:42;25.80;;;17.88;;
11414;SDS011;5763;42.714;23.244;2023-01-09T05:56:09;26.65;;;19.63;;
11414;SDS011;5763;42.714;23.244;2023-01-09T05:58:36;25.05;;;18.42;;
11414;SDS011;5763;42.714;23.244;2023-01-09T06:01:02;27.85;;;19.25;;
11414;SDS011;5763;42.714;23.244;2023-01-09T06:03:29;26.45;;;20.27;;
11414;SDS011;5763;42.714;23.244;2023-01-09T06:05:56;28.20;;;18.67;;
11414;SDS011;5763;42.714;23.244;2023-01-09T06:08:22;24.85;;;18.67;;
11414;SDS011;5763;42.714;23.244;2023-01-09T06:10:51;26.25;;;18.02;;
11414;SDS011;5763;42.714;23.244;2023-01-09T06:13:18;24.30;;;18.00;;
11414;SDS011;5763;42.714;23.244;2023-01-09T06:15:45;29.73;;;19.25;;
11414;SDS011;5763;42.714;23.244;2023-01-09T06:18:12;23.42;;;17.83;;
11414;SDS011;5763;42.714;23.244;2023-01-09T06:20:39;27.65;;;19.15;;
11414;SDS011;5763;42.714;23.244;2023-01-09T06:23:06;30.77;;;19.88;;
11414;SDS011;5763;42.714;23.244;2023-01-09T06:25:33;28.20;;;18.60;;
11414;SDS011;5763;42.714;23.244;2023-01-09T06:28:01;24.95;;;18.70;;
11414;SDS011;5763;42.714;23.244;2023-01-09T06:30:28;27.05;;;18.85;;
11414;SDS011;5763;42.714;23.244;2023-01-09T06:32:54;22.50;;;17.67;;
11414;SDS011;5763;42.714;23.244;2023-01-09T06:35:21;25.25;;;17.95;;
11414;SDS011;5763;42.714;23.244;2023-01-09T06:37:48;24.20;;;17.80;;
11414;SDS011;5763;42.714;23.244;2023-01-09T06:40:15;26.00;;;18.15;;
11414;SDS011;5763;42.714;23.244;2023-01-09T06:42:42;26.75;;;18.13;;
11414;SDS011;5763;42.714;23.244;2023-01-09T06:45:11;26.20;;;17.98;;
11414;SDS011;5763;42.714;23.244;2023-01-09T06:47:39;25.60;;;17.27;;
11414;SDS011;5763;42.714;23.244;2023-01-09T06:50:06;23.30;;;16.77;;
11414;SDS011;5763;42.714;23.244;2023-01-09T06:52:34;23.05;;;17.52;;
11414;SDS011;5763;42.714;23.244;2023-01-09T06:55:01;25.20;;;18.55;;
11414;SDS011;5763;42.714;23.244;2023-01-09T06:57:29;28.70;;;19.90;;
11414;SDS011;5763;42.714;23.244;2023-01-09T06:59:56;29.58;;;19.90;;
11414;SDS011;5763;42.714;23.244;2023-01-09T07:02:24;27.85;;;18.85;;
11414;SDS011;5763;42.714;23.244;2023-01-09T07:04:51;26.95;;;18.88;;
11414;SDS011;5763;42.714;23.244;2023-01-09T07:07:18;28.27;;;18.83;;
11414;SDS011;5763;42.714;23.244;2023-01-09T07:09:46;27.58;;;20.52;;
11414;SDS011;5763;42.714;23.244;2023-01-09T07:12:13;23.63;;;18.45;;
11414;SDS011;5763;42.714;23.244;2023-01-09T07:14:40;27.15;;;20.35;;
11414;SDS011;5763;42.714;23.244;2023-01-09T07:17:07;24.08;;;19.40;;
11414;SDS011;5763;42.714;23.244;2023-01-09T07:19:36;27.90;;;20.95;;
11414;SDS011;5763;42.714;23.244;2023-01-09T07:22:03;26.92;;;20.48;;
11414;SDS011;5763;42.714;23.244;2023-01-09T07:24:29;26.58;;;20.00;;
11414;SDS011;5763;42.714;23.244;2023-01-09T07:26:56;24.92;;;18.17;;
11414;SDS011;5763;42.714;23.244;2023-01-09T07:29:23;25.02;;;19.10;;
11414;SDS011;5763;42.714;23.244;2023-01-09T07:31:50;25.05;;;19.17;;
11414;SDS011;5763;42.714;23.244;2023-01-09T07:34:17;23.80;;;19.58;;
11414;SDS011;5763;42.714;23.244;2023-01-09T07:36:45;28.63;;;20.80;;
11414;SDS011;5763;42.714;23.244;2023-01-09T07:39:12;25.95;;;20.55;;
11414;SDS011;5763;42.714;23.244;2023-01-09T07:41:39;32.25;;;23.17;;
11414;SDS011;5763;42.714;23.244;2023-01-09T07:44:06;26.73;;;21.77;;
11414;SDS011;5763;42.714;23.244;2023-01-09T07:46:33;29.65;;;23.27;;
11414;SDS011;5763;42.714;23.244;2023-01-09T07:48:59;28.13;;;22.65;;
11414;SDS011;5763;42.714;23.244;2023-01-09T07:51:26;29.73;;;22.10;;
11414;SDS011;5763;42.714;23.244;2023-01-09T07:53:55;27.48;;;22.02;;
11414;SDS011;5763;42.714;23.244;2023-01-09T07:56:21;28.30;;;22.67;;
11414;SDS011;5763;42.714;23.244;2023-01-09T07:58:48;29.13;;;22.55;;
11414;SDS011;5763;42.714;23.244;2023-01-09T08:01:15;27.85;;;22.48;;
11414;SDS011;5763;42.714;23.244;2023-01-09T08:03:41;31.50;;;23.88;;
11414;SDS011;5763;42.714;23.244;2023-01-09T08:06:08;31.20;;;23.20;;
11414;SDS011;5763;42.714;23.244;2023-01-09T08:08:35;32.92;;;24.27;;
11414;SDS011;5763;42.714;23.244;2023-01-09T08:11:03;31.67;;;25.27;;
11414;SDS011;5763;42.714;23.244;2023-01-09T08:13:30;32.00;;;26.90;;
11414;SDS011;5763;42.714;23.244;2023-01-09T08:15:57;34.45;;;26.92;;
11414;SDS011;5763;42.714;23.244;2023-01-09T08:18:23;35.60;;;26.50;;
11414;SDS011;5763;42.714;23.244;2023-01-09T08:20:50;33.03;;;27.48;;
11414;SDS011;5763;42.714;23.244;2023-01-09T08:23:17;32.97;;;27.17;;
11414;SDS011;5763;42.714;23.244;2023-01-09T08:25:44;38.08;;;27.95;;
11414;SDS011;5763;42.714;23.244;2023-01-09T08:28:12;35.65;;;27.58;;
11414;SDS011;5763;42.714;23.244;2023-01-09T08:30:39;32.85;;;26.88;;
11414;SDS011;5763;42.714;23.244;2023-01-09T08:33:06;38.70;;;27.30;;
11414;SDS011;5763;42.714;23.244;2023-01-09T08:35:32;36.17;;;26.58;;
11414;SDS011;5763;42.714;23.244;2023-01-09T08:37:59;39.00;;;26.25;;
11414;SDS011;5763;42.714;23.244;2023-01-09T08:40:26;33.95;;;25.15;;
11414;SDS011;5763;42.714;23.244;2023-01-09T08:42:53;34.17;;;25.48;;
11414;SDS011;5763;42.714;23.244;2023-01-09T08:45:38;35.33;;;26.15;;
11414;SDS011;5763;42.714;23.244;2023-01-09T08:48:22;36.30;;;26.38;;
11414;SDS011;5763;42.714;23.244;2023-01-09T08:50:49;41.30;;;27.67;;
11414;SDS011;5763;42.714;23.244;2023-01-09T08:53:18;38.00;;;26.30;;
11414;SDS011;5763;42.714;23.244;2023-01-09T08:55:45;37.60;;;26.55;;
11414;SDS011;5763;42.714;23.244;2023-01-09T08:58:12;33.00;;;25.40;;
11414;SDS011;5763;42.714;23.244;2023-01-09T09:00:40;34.90;;;25.65;;
11414;SDS011;5763;42.714;23.244;2023-01-09T09:03:08;29.48;;;23.60;;
11414;SDS011;5763;42.714;23.244;2023-01-09T09:05:37;37.40;;;25.65;;
11414;SDS011;5763;42.714;23.244;2023-01-09T09:08:07;30.23;;;24.95;;
11414;SDS011;5763;42.714;23.244;2023-01-09T09:10:35;35.50;;;26.60;;
11414;SDS011;5763;42.714;23.244;2023-01-09T09:13:03;31.45;;;24.55;;
11414;SDS011;5763;42.714;23.244;2023-01-09T09:15:31;30.75;;;24.60;;
11414;SDS011;5763;42.714;23.244;2023-01-09T09:18:00;33.83;;;25.42;;
11414;SDS011;5763;42.714;23.244;2023-01-09T09:20:30;33.58;;;25.50;;
11414;SDS011;5763;42.714;23.244;2023-01-09T09:22:59;35.92;;;25.90;;
11414;SDS011;5763;42.714;23.244;2023-01-09T09:25:27;33.92;;;25.90;;
11414;SDS011;5763;42.714;23.244;2023-01-09T09:27:56;32.42;;;25.25;;
11414;SDS011;5763;42.714;23.244;2023-01-09T09:30:25;34.55;;;25.63;;
11414;SDS011;5763;42.714;23.244;2023-01-09T09:32:53;33.80;;;25.13;;
11414;SDS011;5763;42.714;23.244;2023-01-09T09:35:22;34.92;;;25.88;;
11414;SDS011;5763;42.714;23.244;2023-01-09T09:37:53;34.63;;;26.27;;
11414;SDS011;5763;42.714;23.244;2023-01-09T09:40:29;34.83;;;26.58;;
11414;SDS011;5763;42.714;23.244;2023-01-09T09:43:11;34.78;;;26.00;;
11414;SDS011;5763;42.714;23.244;2023-01-09T09:46:04;33.80;;;26.05;;
11414;SDS011;5763;42.714;23.244;2023-01-09T09:48:41;36.50;;;27.40;;
11414;SDS011;5763;42.714;23.244;2023-01-09T09:54:14;35.63;;;27.80;;
11414;SDS011;5763;42.714;23.244;2023-01-09T09:56:53;33.35;;;26.17;;
11414;SDS011;5763;42.714;23.244;2023-01-09T09:59:24;35.58;;;25.50;;
11414;SDS011;5763;42.714;23.244;2023-01-09T10:01:56;34.10;;;25.60;;
11414;SDS011;5763;42.714;23.244;2023-01-09T10:04:29;34.20;;;24.20;;
11414;SDS011;5763;42.714;23.244;2023-01-09T10:07:01;34.00;;;24.92;;
11414;SDS011;5763;42.714;23.244;2023-01-09T10:09:35;32.75;;;25.08;;
11414;SDS011;5763;42.714;23.244;2023-01-09T10:12:16;33.28;;;24.67;;
11414;SDS011;5763;42.714;23.244;2023-01-09T10:14:52;30.77;;;23.35;;
11414;SDS011;5763;42.714;23.244;2023-01-09T10:17:34;26.35;;;20.15;;
11414;SDS011;5763;42.714;23.244;2023-01-09T10:20:23;24.45;;;17.70;;
11414;SDS011;5763;42.714;23.244;2023-01-09T10:23:21;23.75;;;16.60;;
11414;SDS011;5763;42.714;23.244;2023-01-09T10:26:04;22.77;;;16.17;;
11414;SDS011;5763;42.714;23.244;2023-01-09T10:31:34;16.83;;;13.75;;
11414;SDS011;5763;42.714;23.244;2023-01-09T10:34:13;20.35;;;14.60;;
11414;SDS011;5763;42.714;23.244;2023-01-09T10:36:56;20.52;;;14.73;;
11414;SDS011;5763;42.714;23.244;2023-01-09T10:39:36;18.30;;;14.20;;
11414;SDS011;5763;42.714;23.244;2023-01-09T10:42:11;18.27;;;14.05;;
11414;SDS011;5763;42.714;23.244;2023-01-09T10:44:48;21.00;;;15.75;;
11414;SDS011;5763;42.714;23.244;2023-01-09T10:47:22;21.45;;;16.10;;
11414;SDS011;5763;42.714;23.244;2023-01-09T10:49:54;21.02;;;16.60;;
11414;SDS011;5763;42.714;23.244;2023-01-09T10:52:24;21.90;;;17.10;;
11414;SDS011;5763;42.714;23.244;2023-01-09T10:54:59;20.58;;;16.92;;
11414;SDS011;5763;42.714;23.244;2023-01-09T10:57:41;20.75;;;17.33;;
11414;SDS011;5763;42.714;23.244;2023-01-09T11:00:16;25.00;;;17.63;;
11414;SDS011;5763;42.714;23.244;2023-01-09T11:02:45;25.08;;;18.33;;
11414;SDS011;5763;42.714;23.244;2023-01-09T11:05:14;21.30;;;16.67;;
11414;SDS011;5763;42.714;23.244;2023-01-09T11:07:45;23.90;;;17.73;;
11414;SDS011;5763;42.714;23.244;2023-01-09T11:10:16;25.55;;;18.35;;
11414;SDS011;5763;42.714;23.244;2023-01-09T11:12:43;21.50;;;15.82;;
11414;SDS011;5763;42.714;23.244;2023-01-09T11:15:25;23.15;;;16.15;;
11414;SDS011;5763;42.714;23.244;2023-01-09T11:17:57;19.40;;;15.25;;
11414;SDS011;5763;42.714;23.244;2023-01-09T11:20:45;19.13;;;15.10;;
11414;SDS011;5763;42.714;23.244;2023-01-09T11:26:01;20.50;;;14.45;;
11414;SDS011;5763;42.714;23.244;2023-01-09T11:28:29;21.17;;;13.93;;
11414;SDS011;5763;42.714;23.244;2023-01-09T11:30:57;18.67;;;13.68;;
11414;SDS011;5763;42.714;23.244;2023-01-09T11:33:26;18.75;;;13.50;;
11414;SDS011;5763;42.714;23.244;2023-01-09T11:35:59;20.05;;;13.07;;
11414;SDS011;5763;42.714;23.244;2023-01-09T11:38:29;16.00;;;12.27;;
11414;SDS011;5763;42.714;23.244;2023-01-09T11:40:57;19.33;;;13.65;;
11414;SDS011;5763;42.714;23.244;2023-01-09T11:43:31;18.92;;;13.13;;
11414;SDS011;5763;42.714;23.244;2023-01-09T11:46:02;16.65;;;13.13;;
11414;SDS011;5763;42.714;23.244;2023-01-09T11:48:34;13.73;;;11.45;;
11414;SDS011;5763;42.714;23.244;2023-01-09T11:51:04;15.98;;;11.75;;
11414;SDS011;5763;42.714;23.244;2023-01-09T11:53:53;16.77;;;13.32;;
11414;SDS011;5763;42.714;23.244;2023-01-09T11:56:36;17.70;;;12.25;;
11414;SDS011;5763;42.714;23.244;2023-01-09T11:59:08;16.77;;;12.75;;
11414;SDS011;5763;42.714;23.244;2023-01-09T12:01:44;15.18;;;11.38;;
11414;SDS011;5763;42.714;23.244;2023-01-09T12:04:22;14.70;;;11.57;;
11414;SDS011;5763;42.714;23.244;2023-01-09T12:06:57;15.15;;;12.18;;
11414;SDS011;5763;42.714;23.244;2023-01-09T12:09:37;14.82;;;11.80;;
11414;SDS011;5763;42.714;23.244;2023-01-09T12:12:11;15.07;;;13.23;;
11414;SDS011;5763;42.714;23.244;2023-01-09T12:14:50;14.82;;;12.57;;
11414;SDS011;5763;42.714;23.244;2023-01-09T12:20:39;14.32;;;11.95;;
11414;SDS011;5763;42.714;23.244;2023-01-09T12:23:24;13.48;;;12.07;;
11414;SDS011;5763;42.714;23.244;2023-01-09T12:26:02;15.52;;;12.65;;
11414;SDS011;5763;42.714;23.244;2023-01-09T12:28:46;14.10;;;12.65;;
11414;SDS011;5763;42.714;23.244;2023-01-09T12:31:37;14.27;;;12.05;;
11414;SDS011;5763;42.714;23.244;2023-01-09T12:34:17;13.93;;;12.18;;
11414;SDS011;5763;42.714;23.244;2023-01-09T12:36:57;15.43;;;12.13;;
11414;SDS011;5763;42.714;23.244;2023-01-09T12:39:41;14.68;;;12.15;;
11414;SDS011;5763;42.714;23.244;2023-01-09T12:42:27;16.17;;;11.88;;
11414;SDS011;5763;42.714;23.244;2023-01-09T12:45:15;15.50;;;12.07;;
11414;SDS011;5763;42.714;23.244;2023-01-09T12:48:00;17.52;;;12.10;;
11414;SDS011;5763;42.714;23.244;2023-01-09T12:50:42;15.25;;;11.63;;
11414;SDS011;5763;42.714;23.244;2023-01-09T12:53:20;16.40;;;12.40;;
11414;SDS011;5763;42.714;23.244;2023-01-09T12:55:51;17.30;;;12.90;;
11414;SDS011;5763;42.714;23.244;2023-01-09T12:58:26;18.23;;;12.68;;
11414;SDS011;5763;42.714;23.244;2023-01-09T13:00:59;15.75;;;11.35;;
11414;SDS011;5763;42.714;23.244;2023-01-09T13:03:33;18.60;;;12.93;;
11414;SDS011;5763;42.714;23.244;2023-01-09T13:06:05;17.35;;;12.80;;
11414;SDS011;5763;42.714;23.244;2023-01-09T13:08:38;18.48;;;13.80;;
11414;SDS011;5763;42.714;23.244;2023-01-09T13:11:08;17.60;;;12.23;;
11414;SDS011;5763;42.714;23.244;2023-01-09T13:13:41;14.57;;;12.05;;
11414;SDS011;5763;42.714;23.244;2023-01-09T13:16:12;16.95;;;12.60;;
11414;SDS011;5763;42.714;23.244;2023-01-09T13:18:46;18.13;;;12.25;;
11414;SDS011;5763;42.714;23.244;2023-01-09T13:21:16;20.88;;;13.50;;
11414;SDS011;5763;42.714;23.244;2023-01-09T13:23:46;17.95;;;12.32;;
11414;SDS011;5763;42.714;23.244;2023-01-09T13:26:18;17.40;;;12.52;;
11414;SDS011;5763;42.714;23.244;2023-01-09T13:28:48;18.00;;;12.95;;
11414;SDS011;5763;42.714;23.244;2023-01-09T13:31:32;18.25;;;12.73;;
11414;SDS011;5763;42.714;23.244;2023-01-09T13:34:10;15.32;;;11.85;;
11414;SDS011;5763;42.714;23.244;2023-01-09T13:36:44;15.57;;;11.32;;
11414;SDS011;5763;42.714;23.244;2023-01-09T13:39:18;17.30;;;11.60;;
11414;SDS011;5763;42.714;23.244;2023-01-09T13:41:47;15.88;;;11.65;;
11414;SDS011;5763;42.714;23.244;2023-01-09T13:44:36;14.63;;;10.82;;
11414;SDS011;5763;42.714;23.244;2023-01-09T13:47:03;17.00;;;12.05;;
11414;SDS011;5763;42.714;23.244;2023-01-09T13:49:32;16.80;;;12.25;;
11414;SDS011;5763;42.714;23.244;2023-01-09T13:52:28;17.15;;;12.38;;
11414;SDS011;5763;42.714;23.244;2023-01-09T13:58:22;15.18;;;11.48;;
11414;SDS011;5763;42.714;23.244;2023-01-09T14:00:51;15.32;;;11.30;;
11414;SDS011;5763;42.714;23.244;2023-01-09T14:03:22;16.45;;;11.52;;
11414;SDS011;5763;42.714;23.244;2023-01-09T14:06:11;18.38;;;11.82;;
11414;SDS011;5763;42.714;23.244;2023-01-09T14:08:41;19.08;;;12.27;;
11414;SDS011;5763;42.714;23.244;2023-01-09T14:11:11;15.70;;;10.98;;
11414;SDS011;5763;42.714;23.244;2023-01-09T14:13:50;16.85;;;11.68;;
11414;SDS011;5763;42.714;23.244;2023-01-09T14:16:35;16.88;;;11.73;;
11414;SDS011;5763;42.714;23.244;2023-01-09T14:19:04;17.42;;;10.63;;
11414;SDS011;5763;42.714;23.244;2023-01-09T14:21:48;17.85;;;12.00;;
11414;SDS011;5763;42.714;23.244;2023-01-09T14:24:19;14.93;;;11.25;;
11414;SDS011;5763;42.714;23.244;2023-01-09T14:26:48;17.33;;;11.82;;
11414;SDS011;5763;42.714;23.244;2023-01-09T14:29:41;15.25;;;11.25;;
11414;SDS011;5763;42.714;23.244;2023-01-09T14:38:18;15.45;;;10.50;;
11414;SDS011;5763;42.714;23.244;2023-01-09T14:40:54;18.38;;;11.25;;
11414;SDS011;5763;42.714;23.244;2023-01-09T14:43:31;15.68;;;10.65;;
11414;SDS011;5763;42.714;23.244;2023-01-09T14:46:09;14.27;;;10.57;;
11414;SDS011;5763;42.714;23.244;2023-01-09T14:48:39;17.20;;;11.25;;
11414;SDS011;5763;42.714;23.244;2023-01-09T14:51:15;16.17;;;11.15;;
11414;SDS011;5763;42.714;23.244;2023-01-09T14:53:44;15.43;;;11.27;;
11414;SDS011;5763;42.714;23.244;2023-01-09T14:56:24;17.88;;;12.32;;
11414;SDS011;5763;42.714;23.244;2023-01-09T14:59:09;15.82;;;11.68;;
11414;SDS011;5763;42.714;23.244;2023-01-09T15:01:38;17.98;;;11.82;;
11414;SDS011;5763;42.714;23.244;2023-01-09T15:04:13;16.30;;;10.85;;
11414;SDS011;5763;42.714;23.244;2023-01-09T15:06:48;18.67;;;11.32;;
11414;SDS011;5763;42.714;23.244;2023-01-09T15:09:18;15.35;;;10.45;;
11414;SDS011;5763;42.714;23.244;2023-01-09T15:11:48;16.20;;;10.60;;
11414;SDS011;5763;42.714;23.244;2023-01-09T15:14:17;16.38;;;11.02;;